F/V Oceanie — FVBW — position and weather

sailwx.info

Track history (hours):
 
Tides and Currents Weather Stations Pressure Air Temp Water Temp Dewpoint Dewpoint Depression Visibility Wind Speed Wind Dir Waves Ship Positions

F/V Oceanie

Last reported at 2016-Jul-29 04:33 UTC. Time now 2016-Jul-29 06:01 UTC.
Position N 47°14' W 003°13'.

Length 16 m.

Type: Fishing. MMSI: 228370000.

Date/timePositionNaut miles runAvg speedWind from/ knotsBaromVisibWave heightAir tempDewpointWater temp
2016-Jul-29 04:33N 47°14' W 003°13'8 7.9
2016-Jul-29 03:33N 47°21' W 003°18'9 9.3
2016-Jul-29 02:33N 47°30' W 003°21'10 9.6
2016-Jul-29 01:33N 47°40' W 003°22'4 3.8
2016-Jul-29 00:33N 47°44' W 003°22'0 0.1
2016-Jul-28 23:33N 47°44' W 003°22'5 5.3
2016-Jul-28 22:33N 47°38' W 003°22'9 9.2
2016-Jul-28 21:33N 47°29' W 003°21'9 9.3
2016-Jul-28 20:33N 47°20' W 003°17'9 8.9
2016-Jul-28 19:33N 47°12' W 003°12'9 8.8
2016-Jul-28 18:33N 47°03' W 003°09'12 8.9
2016-Jul-28 17:09N 46°51' W 003°04'19 4.8
2016-Jul-28 13:08N 46°33' W 002°55'5 1.6
2016-Jul-28 10:15N 46°29' W 002°54'15 0.6
2016-Jul-27 08:26N 46°38' W 003°10'4 4.2
2016-Jul-27 07:33N 46°42' W 003°12'7 6.6
2016-Jul-27 06:31N 46°48' W 003°14'9 9.2
2016-Jul-27 05:33N 46°57' W 003°16'9 9.4
2016-Jul-27 04:33N 47°07' W 003°17'9 9.4
2016-Jul-27 03:33N 47°16' W 003°19'10 9.5
2016-Jul-27 02:33N 47°25' W 003°21'10 9.7
2016-Jul-27 01:33N 47°35' W 003°22'9 8.8
2016-Jul-27 00:33N 47°44' W 003°22'2 2.4
2016-Jul-26 23:33N 47°41' W 003°22'9 8.6
2016-Jul-26 22:33N 47°33' W 003°22'9 8.7
2016-Jul-26 21:33N 47°24' W 003°20'9 8.5
2016-Jul-26 20:33N 47°16' W 003°19'9 8.5
2016-Jul-26 19:29N 47°07' W 003°17'9 9.2
2016-Jul-26 18:33N 46°58' W 003°16'9 8.8
2016-Jul-26 17:33N 46°50' W 003°14'26 3.6
2016-Jul-26 10:13N 46°28' W 002°52'2 3.5
2016-Jul-26 09:33N 46°30' W 002°55'3 2.5
2016-Jul-26 08:29N 46°32' W 002°53'4 4.0
2016-Jul-26 07:32N 46°29' W 002°51'6 1.9
2016-Jul-26 04:32N 46°34' W 002°54'2 1.9
2016-Jul-26 03:32N 46°33' W 002°57'5 1.3
2016-Jul-25 23:17N 46°29' W 002°51'6 0.8
2016-Jul-25 15:31N 46°24' W 002°52'4 4.0
2016-Jul-25 14:33N 46°27' W 002°55'4 3.9
2016-Jul-25 13:33N 46°30' W 002°57'36 4.0
2016-Jul-25 04:30N 47°02' W 003°23'8 8.8
2016-Jul-25 03:33N 47°10' W 003°23'9 9.0
2016-Jul-25 02:33N 47°19' W 003°23'9 9.0
2016-Jul-25 01:33N 47°28' W 003°23'9 9.0
2016-Jul-25 00:33N 47°37' W 003°22'7 6.6
2016-Jul-24 23:33N 47°44' W 003°22'0 0.0
2016-Jul-23 00:21N 47°44' W 003°22'3 4.2
2016-Jul-22 23:33N 47°40' W 003°22'9 9.2
2016-Jul-22 22:33N 47°31' W 003°23'9 8.5
2016-Jul-22 21:33N 47°23' W 003°24'8 8.5
2016-Jul-22 20:33N 47°14' W 003°24'6 6.2
2016-Jul-22 19:33N 47°08' W 003°26'4 3.9
2016-Jul-22 18:27N 47°04' W 003°25'3 3.8
2016-Jul-22 17:33N 47°01' W 003°23'6 4.2
2016-Jul-22 16:09N 46°55' W 003°22'2 3.3
2016-Jul-22 15:25N 46°53' W 003°19'4 4.0
2016-Jul-22 14:32N 46°50' W 003°17'4 3.8
2016-Jul-22 13:33N 46°48' W 003°12'11 3.8
2016-Jul-22 10:33N 46°37' W 003°08'4 3.5
2016-Jul-22 09:19N 46°40' W 003°12'4 4.6
2016-Jul-22 08:27N 46°44' W 003°11'3 2.9
2016-Jul-22 07:27N 46°41' W 003°11'8 2.6
2016-Jul-22 04:24N 46°33' W 003°10'10 3.4
2016-Jul-22 01:25N 46°27' W 002°58'12 3.8
2016-Jul-21 22:23N 46°35' W 003°10'4 4.1
2016-Jul-21 21:29N 46°36' W 003°15'2 1.5
2016-Jul-21 20:09N 46°37' W 003°14'2 3.0
2016-Jul-21 19:33N 46°39' W 003°15'3 2.3
2016-Jul-21 18:17N 46°36' W 003°16'3 3.7
2016-Jul-21 17:33N 46°35' W 003°12'4 3.8
2016-Jul-21 16:32N 46°31' W 003°10'2 0.7
2016-Jul-21 13:23N 46°29' W 003°09'4 4.1
2016-Jul-21 12:23N 46°33' W 003°09'3 1.6
2016-Jul-21 10:19N 46°36' W 003°10'3 4.1
2016-Jul-21 09:29N 46°40' W 003°12'4 4.0
2016-Jul-21 08:30N 46°43' W 003°12'4 4.1
2016-Jul-21 07:33N 46°47' W 003°15'7 7.1
2016-Jul-21 06:32N 46°54' W 003°16'9 9.4
2016-Jul-21 05:33N 47°03' W 003°18'9 9.0
2016-Jul-21 04:33N 47°12' W 003°20'9 9.5
2016-Jul-21 03:33N 47°21' W 003°21'9 9.2
2016-Jul-21 02:33N 47°31' W 003°22'9 9.3
2016-Jul-21 01:33N 47°40' W 003°22'4 3.8
2016-Jul-21 00:33N 47°44' W 003°22'8 8.4
2016-Jul-20 23:33N 47°35' W 003°22'9 9.1
2016-Jul-20 22:33N 47°26' W 003°21'9 8.7
2016-Jul-20 21:33N 47°18' W 003°20'9 8.8
2016-Jul-20 20:33N 47°09' W 003°19'16 5.2
2016-Jul-20 17:26N 46°53' W 003°19'3 3.7
2016-Jul-20 16:33N 46°50' W 003°16'3 2.3
2016-Jul-20 15:20N 46°49' W 003°12'1 0.8
2016-Jul-20 14:32N 46°48' W 003°13'1 0.3
2016-Jul-20 12:06N 46°48' W 003°13'1 2.4
2016-Jul-20 11:33N 46°49' W 003°12'0 0.2
2016-Jul-20 10:21N 46°49' W 003°13'3 3.5
2016-Jul-20 09:32N 46°48' W 003°17'4 3.6
2016-Jul-20 08:33N 46°50' W 003°21'3 3.0
2016-Jul-20 07:32N 46°53' W 003°19'3 2.8
2016-Jul-20 06:34N 46°56' W 003°20'3 2.5
2016-Jul-20 05:33N 46°58' W 003°18'8 7.8
2016-Jul-20 04:33N 47°06' W 003°20'9 9.2
2016-Jul-20 03:33N 47°15' W 003°21'9 9.1
2016-Jul-20 02:33N 47°24' W 003°22'9 8.9
2016-Jul-20 01:33N 47°33' W 003°22'9 8.9
2016-Jul-20 00:33N 47°42' W 003°22'0 0.2
2016-Jul-19 23:33N 47°42' W 003°22'10 9.8
2016-Jul-19 22:33N 47°32' W 003°22'10 9.5
2016-Jul-19 21:33N 47°23' W 003°21'10 9.6
2016-Jul-19 20:33N 47°13' W 003°20'9 9.2
2016-Jul-19 19:32N 47°04' W 003°19'4 4.4
2016-Jul-19 18:33N 46°59' W 003°19'4 3.9
2016-Jul-19 17:32N 46°56' W 003°17'3 3.3
2016-Jul-19 16:33N 46°52' W 003°19'3 2.8
2016-Jul-19 15:33N 46°50' W 003°19'2 1.6
2016-Jul-19 14:29N 46°51' W 003°18'3 1.3
2016-Jul-19 12:30N 46°49' W 003°15'2 0.4
2016-Jul-19 08:33N 46°49' W 003°13'3 3.3
2016-Jul-19 07:33N 46°50' W 003°17'14 4.7
2016-Jul-19 04:34N 47°04' W 003°20'  
Track history (hours):
 
Tides and Currents Weather Stations Pressure Air Temp Water Temp Dewpoint Dewpoint Depression Visibility Wind Speed Wind Dir Waves Ship Positions

F/V Oceanie

Last reported at 2016-Jul-29 04:33 UTC. Time now 2016-Jul-29 06:01 UTC.
Position N 47°14' W 003°13'.

Length 16 m.

Type: Fishing. MMSI: 228370000.

Date/timePositionNaut miles runAvg speedWind from/ knotsBaromVisibWave heightAir tempDewpointWater temp
2016-Jul-29 04:33N 47°14' W 003°13'8 7.9
2016-Jul-29 03:33N 47°21' W 003°18'9 9.3
2016-Jul-29 02:33N 47°30' W 003°21'10 9.6
2016-Jul-29 01:33N 47°40' W 003°22'4 3.8
2016-Jul-29 00:33N 47°44' W 003°22'0 0.1
2016-Jul-28 23:33N 47°44' W 003°22'5 5.3
2016-Jul-28 22:33N 47°38' W 003°22'9 9.2
2016-Jul-28 21:33N 47°29' W 003°21'9 9.3
2016-Jul-28 20:33N 47°20' W 003°17'9 8.9
2016-Jul-28 19:33N 47°12' W 003°12'9 8.8
2016-Jul-28 18:33N 47°03' W 003°09'12 8.9
2016-Jul-28 17:09N 46°51' W 003°04'19 4.8
2016-Jul-28 13:08N 46°33' W 002°55'5 1.6
2016-Jul-28 10:15N 46°29' W 002°54'15 0.6
2016-Jul-27 08:26N 46°38' W 003°10'4 4.2
2016-Jul-27 07:33N 46°42' W 003°12'7 6.6
2016-Jul-27 06:31N 46°48' W 003°14'9 9.2
2016-Jul-27 05:33N 46°57' W 003°16'9 9.4
2016-Jul-27 04:33N 47°07' W 003°17'9 9.4
2016-Jul-27 03:33N 47°16' W 003°19'10 9.5
2016-Jul-27 02:33N 47°25' W 003°21'10 9.7
2016-Jul-27 01:33N 47°35' W 003°22'9 8.8
2016-Jul-27 00:33N 47°44' W 003°22'2 2.4
2016-Jul-26 23:33N 47°41' W 003°22'9 8.6
2016-Jul-26 22:33N 47°33' W 003°22'9 8.7
2016-Jul-26 21:33N 47°24' W 003°20'9 8.5
2016-Jul-26 20:33N 47°16' W 003°19'9 8.5
2016-Jul-26 19:29N 47°07' W 003°17'9 9.2
2016-Jul-26 18:33N 46°58' W 003°16'9 8.8
2016-Jul-26 17:33N 46°50' W 003°14'26 3.6
2016-Jul-26 10:13N 46°28' W 002°52'2 3.5
2016-Jul-26 09:33N 46°30' W 002°55'3 2.5
2016-Jul-26 08:29N 46°32' W 002°53'4 4.0
2016-Jul-26 07:32N 46°29' W 002°51'6 1.9
2016-Jul-26 04:32N 46°34' W 002°54'2 1.9
2016-Jul-26 03:32N 46°33' W 002°57'5 1.3
2016-Jul-25 23:17N 46°29' W 002°51'6 0.8
2016-Jul-25 15:31N 46°24' W 002°52'4 4.0
2016-Jul-25 14:33N 46°27' W 002°55'4 3.9
2016-Jul-25 13:33N 46°30' W 002°57'36 4.0
2016-Jul-25 04:30N 47°02' W 003°23'8 8.8
2016-Jul-25 03:33N 47°10' W 003°23'9 9.0
2016-Jul-25 02:33N 47°19' W 003°23'9 9.0
2016-Jul-25 01:33N 47°28' W 003°23'9 9.0
2016-Jul-25 00:33N 47°37' W 003°22'7 6.6
2016-Jul-24 23:33N 47°44' W 003°22'0 0.0
2016-Jul-23 00:21N 47°44' W 003°22'3 4.2
2016-Jul-22 23:33N 47°40' W 003°22'9 9.2
2016-Jul-22 22:33N 47°31' W 003°23'9 8.5
2016-Jul-22 21:33N 47°23' W 003°24'8 8.5
2016-Jul-22 20:33N 47°14' W 003°24'6 6.2
2016-Jul-22 19:33N 47°08' W 003°26'4 3.9
2016-Jul-22 18:27N 47°04' W 003°25'3 3.8
2016-Jul-22 17:33N 47°01' W 003°23'6 4.2
2016-Jul-22 16:09N 46°55' W 003°22'2 3.3
2016-Jul-22 15:25N 46°53' W 003°19'4 4.0
2016-Jul-22 14:32N 46°50' W 003°17'4 3.8
2016-Jul-22 13:33N 46°48' W 003°12'11 3.8
2016-Jul-22 10:33N 46°37' W 003°08'4 3.5
2016-Jul-22 09:19N 46°40' W 003°12'4 4.6
2016-Jul-22 08:27N 46°44' W 003°11'3 2.9
2016-Jul-22 07:27N 46°41' W 003°11'8 2.6
2016-Jul-22 04:24N 46°33' W 003°10'10 3.4
2016-Jul-22 01:25N 46°27' W 002°58'12 3.8
2016-Jul-21 22:23N 46°35' W 003°10'4 4.1
2016-Jul-21 21:29N 46°36' W 003°15'2 1.5
2016-Jul-21 20:09N 46°37' W 003°14'2 3.0
2016-Jul-21 19:33N 46°39' W 003°15'3 2.3
2016-Jul-21 18:17N 46°36' W 003°16'3 3.7
2016-Jul-21 17:33N 46°35' W 003°12'4 3.8
2016-Jul-21 16:32N 46°31' W 003°10'2 0.7
2016-Jul-21 13:23N 46°29' W 003°09'4 4.1
2016-Jul-21 12:23N 46°33' W 003°09'3 1.6
2016-Jul-21 10:19N 46°36' W 003°10'3 4.1
2016-Jul-21 09:29N 46°40' W 003°12'4 4.0
2016-Jul-21 08:30N 46°43' W 003°12'4 4.1
2016-Jul-21 07:33N 46°47' W 003°15'7 7.1
2016-Jul-21 06:32N 46°54' W 003°16'9 9.4
2016-Jul-21 05:33N 47°03' W 003°18'9 9.0
2016-Jul-21 04:33N 47°12' W 003°20'9 9.5
2016-Jul-21 03:33N 47°21' W 003°21'9 9.2
2016-Jul-21 02:33N 47°31' W 003°22'9 9.3
2016-Jul-21 01:33N 47°40' W 003°22'4 3.8
2016-Jul-21 00:33N 47°44' W 003°22'8 8.4
2016-Jul-20 23:33N 47°35' W 003°22'9 9.1
2016-Jul-20 22:33N 47°26' W 003°21'9 8.7
2016-Jul-20 21:33N 47°18' W 003°20'9 8.8
2016-Jul-20 20:33N 47°09' W 003°19'16 5.2
2016-Jul-20 17:26N 46°53' W 003°19'3 3.7
2016-Jul-20 16:33N 46°50' W 003°16'3 2.3
2016-Jul-20 15:20N 46°49' W 003°12'1 0.8
2016-Jul-20 14:32N 46°48' W 003°13'1 0.3
2016-Jul-20 12:06N 46°48' W 003°13'1 2.4
2016-Jul-20 11:33N 46°49' W 003°12'0 0.2
2016-Jul-20 10:21N 46°49' W 003°13'3 3.5
2016-Jul-20 09:32N 46°48' W 003°17'4 3.6
2016-Jul-20 08:33N 46°50' W 003°21'3 3.0
2016-Jul-20 07:32N 46°53' W 003°19'3 2.8
2016-Jul-20 06:34N 46°56' W 003°20'3 2.5
2016-Jul-20 05:33N 46°58' W 003°18'8 7.8
2016-Jul-20 04:33N 47°06' W 003°20'9 9.2
2016-Jul-20 03:33N 47°15' W 003°21'9 9.1
2016-Jul-20 02:33N 47°24' W 003°22'9 8.9
2016-Jul-20 01:33N 47°33' W 003°22'9 8.9
2016-Jul-20 00:33N 47°42' W 003°22'0 0.2
2016-Jul-19 23:33N 47°42' W 003°22'10 9.8
2016-Jul-19 22:33N 47°32' W 003°22'10 9.5
2016-Jul-19 21:33N 47°23' W 003°21'10 9.6
2016-Jul-19 20:33N 47°13' W 003°20'9 9.2
2016-Jul-19 19:32N 47°04' W 003°19'4 4.4
2016-Jul-19 18:33N 46°59' W 003°19'4 3.9
2016-Jul-19 17:32N 46°56' W 003°17'3 3.3
2016-Jul-19 16:33N 46°52' W 003°19'3 2.8
2016-Jul-19 15:33N 46°50' W 003°19'2 1.6
2016-Jul-19 14:29N 46°51' W 003°18'3 1.3
2016-Jul-19 12:30N 46°49' W 003°15'2 0.4
2016-Jul-19 08:33N 46°49' W 003°13'3 3.3
2016-Jul-19 07:33N 46°50' W 003°17'14 4.7
2016-Jul-19 04:34N 47°04' W 003°20'  

Dump ship's entire track history